Time;durP1;ratioP1;P1;durP2;ratioP2;P2;SDS_P1;SDS_P2;PMS_P1;PMS_P2;Temp;Humidity;BMP_temperature;BMP_pressure;BME280_temperature;BME280_humidity;BME280_pressure;Samples;Min_cycle;Max_cycle;Signal;HPM_P1;HPM_P2
2022/06/04 00:02:19;;;;;;;13.35;10.15;;;;;;;19.60;100.00;101031.72;4769779;29;20056;-68
2022/06/04 00:04:47;;;;;;;17.33;11.55;;;;;;;19.54;100.00;101021.94;4769713;30;20048;-68
2022/06/04 00:07:15;;;;;;;16.92;10.68;;;;;;;19.56;100.00;101025.19;4768617;30;20516;-68
2022/06/04 00:15:29;;;;;;;14.27;10.35;;;;;;;19.54;100.00;101019.16;4769966;30;20052;-67
2022/06/04 00:15:32;;;;;;;14.32;9.68;;;;;;;19.67;100.00;101019.28;4769934;30;20044;-68
2022/06/04 00:18:01;;;;;;;21.73;11.13;;;;;;;19.73;100.00;101015.19;4769578;30;20063;-68
2022/06/04 00:20:29;;;;;;;16.38;10.52;;;;;;;19.75;100.00;101021.25;4769642;30;20067;-68
2022/06/04 00:22:59;;;;;;;15.05;10.15;;;;;;;19.90;100.00;101021.81;4769970;30;20056;-68
2022/06/04 00:25:27;;;;;;;15.50;10.73;;;;;;;19.69;100.00;101017.81;4769693;30;20047;-68
2022/06/04 00:28:04;;;;;;;17.27;10.55;;;;;;;19.48;100.00;101017.72;4769872;30;20385;-68
2022/06/04 00:30:36;;;;;;;17.40;10.45;;;;;;;19.39;100.00;101019.69;4769216;30;20056;-68
2022/06/04 00:33:05;;;;;;;17.30;11.20;;;;;;;19.33;100.00;101017.09;4770025;30;20515;-68
2022/06/04 00:35:34;;;;;;;17.92;10.43;;;;;;;19.28;100.00;101016.44;4769603;30;20048;-67
2022/06/04 00:38:04;;;;;;;15.80;10.85;;;;;;;19.31;100.00;101013.81;4769479;30;20062;-67
2022/06/04 00:40:38;;;;;;;16.17;10.90;;;;;;;19.22;100.00;101018.59;4769314;30;20499;-67
2022/06/04 00:43:06;;;;;;;17.00;11.50;;;;;;;19.16;100.00;101011.59;4769158;30;20060;-67
2022/06/04 00:45:34;;;;;;;18.40;11.25;;;;;;;19.17;100.00;101008.47;4769311;30;20060;-67
2022/06/04 00:48:08;;;;;;;18.55;11.27;;;;;;;19.25;100.00;101008.81;4768800;30;20052;-67
2022/06/04 00:50:39;;;;;;;19.40;11.35;;;;;;;19.23;100.00;101000.78;4769439;30;20043;-67
2022/06/04 00:53:10;;;;;;;18.08;11.00;;;;;;;19.29;100.00;101005.03;4761656;30;20059;-67
2022/06/04 00:55:48;;;;;;;19.67;11.77;;;;;;;19.24;100.00;101007.97;4769328;30;20063;-67
2022/06/04 00:58:30;;;;;;;21.58;11.30;;;;;;;19.21;100.00;101008.63;4769061;30;20070;-67
2022/06/04 01:01:11;;;;;;;15.50;10.73;;;;;;;19.25;100.00;101012.38;4769167;30;20055;-68
2022/06/04 01:04:03;;;;;;;17.52;11.93;;;;;;;19.24;100.00;101007.97;4767629;30;20052;-68
2022/06/04 01:06:53;;;;;;;21.52;11.43;;;;;;;19.33;100.00;100994.91;4769258;30;20117;-67
2022/06/04 01:09:39;;;;;;;16.23;11.25;;;;;;;19.45;100.00;101008.09;4768394;30;20067;-67
2022/06/04 01:12:20;;;;;;;17.30;11.48;;;;;;;19.50;100.00;100997.97;4769120;30;20412;-68
2022/06/04 01:14:56;;;;;;;15.23;10.88;;;;;;;19.58;100.00;100999.88;4769105;30;20067;-68
2022/06/04 01:17:45;;;;;;;17.83;11.43;;;;;;;19.46;100.00;101006.13;4769110;30;20070;-67
2022/06/04 01:20:45;;;;;;;17.42;11.30;;;;;;;19.38;100.00;100999.47;4768848;30;20063;-68
2022/06/04 01:23:34;;;;;;;17.45;11.80;;;;;;;19.34;100.00;100990.97;4768902;30;20071;-68
2022/06/04 01:26:41;;;;;;;17.38;11.27;;;;;;;19.35;100.00;100980.69;4768738;30;20059;-68
2022/06/04 01:29:16;;;;;;;16.27;10.20;;;;;;;19.33;100.00;100981.03;4767805;30;20052;-67
2022/06/04 01:31:53;;;;;;;15.35;11.05;;;;;;;19.25;100.00;100987.41;4769235;30;20063;-67
2022/06/04 01:34:29;;;;;;;16.17;10.13;;;;;;;19.46;100.00;100995.03;4769112;30;20063;-67
2022/06/04 01:37:09;;;;;;;18.20;10.80;;;;;;;19.50;100.00;100982.09;4769110;30;20056;-67
2022/06/04 01:42:37;;;;;;;18.08;10.75;;;;;;;19.53;100.00;100981.47;4754377;30;20052;-68
2022/06/04 01:45:10;;;;;;;16.85;10.30;;;;;;;19.63;100.00;100987.78;4769135;30;20408;-68
2022/06/04 01:47:40;;;;;;;18.75;12.00;;;;;;;19.55;100.00;100979.16;4768537;30;20516;-67
2022/06/04 01:50:13;;;;;;;18.23;10.88;;;;;;;19.32;100.00;100979.38;4768877;30;20059;-67
2022/06/04 01:52:43;;;;;;;18.60;10.18;;;;;;;19.20;100.00;100985.63;4776811;29;20059;-67
2022/06/04 01:55:21;;;;;;;16.05;10.75;;;;;;;19.19;100.00;100972.06;4778510;30;20415;-67
2022/06/04 01:58:05;;;;;;;16.65;11.50;;;;;;;19.08;100.00;100971.63;4772943;30;20056;-67
2022/06/04 02:00:41;;;;;;;16.15;11.10;;;;;;;19.02;100.00;100973.69;4772422;30;20055;-67
2022/06/04 02:03:12;;;;;;;22.08;11.70;;;;;;;18.98;100.00;100974.69;4771913;30;20404;-67
2022/06/04 02:05:43;;;;;;;17.73;11.65;;;;;;;19.03;100.00;100969.84;4771920;30;20408;-67
2022/06/04 02:08:14;;;;;;;19.42;11.70;;;;;;;19.00;100.00;100977.94;4770730;30;20427;-67
2022/06/04 02:10:53;;;;;;;16.67;9.73;;;;;;;19.01;100.00;100977.63;4780943;30;20511;-67
2022/06/04 02:13:22;;;;;;;19.10;10.68;;;;;;;18.96;100.00;100977.78;4771496;30;20060;-67
2022/06/04 02:16:25;;;;;;;20.13;11.43;;;;;;;18.95;100.00;100965.06;4771896;30;20121;-68
2022/06/04 02:18:56;;;;;;;18.20;11.10;;;;;;;19.02;100.00;100967.34;4761351;30;20400;-67
2022/06/04 02:21:27;;;;;;;20.52;12.38;;;;;;;19.08;100.00;100971.63;4772040;30;20074;-68
2022/06/04 02:23:55;;;;;;;21.85;12.82;;;;;;;19.14;100.00;100969.47;4771634;30;20055;-67
2022/06/04 02:26:25;;;;;;;21.90;12.95;;;;;;;19.10;100.00;100974.06;4771469;30;20401;-67
2022/06/04 02:28:58;;;;;;;24.05;14.27;;;;;;;19.15;100.00;100966.38;4771534;30;20071;-67
2022/06/04 02:31:50;;;;;;;22.80;14.30;;;;;;;19.16;100.00;100964.44;4771645;30;20052;-67
2022/06/04 02:34:41;;;;;;;25.40;15.00;;;;;;;19.11;100.00;100959.84;4771428;30;20056;-67
2022/06/04 02:37:13;;;;;;;21.70;14.75;;;;;;;19.06;100.00;100965.56;4771215;30;20056;-67
2022/06/04 02:39:50;;;;;;;22.90;13.07;;;;;;;19.05;100.00;100967.53;4770530;30;20056;-67
2022/06/04 02:42:44;;;;;;;26.17;14.45;;;;;;;19.02;100.00;100968.16;4770965;30;20055;-67
2022/06/04 02:45:18;;;;;;;21.95;13.55;;;;;;;19.02;100.00;100978.44;4752799;30;20070;-67
2022/06/04 02:47:53;;;;;;;24.83;15.02;;;;;;;19.21;100.00;100967.00;4780677;30;20046;-68
2022/06/04 02:50:32;;;;;;;25.27;14.25;;;;;;;19.38;100.00;100960.63;4763866;30;20059;-68
2022/06/04 02:53:03;;;;;;;26.33;14.35;;;;;;;19.32;100.00;100964.72;4763207;29;20056;-68
2022/06/04 02:55:40;;;;;;;21.60;14.15;;;;;;;19.15;100.00;100960.00;4771156;30;20056;-67
2022/06/04 02:58:15;;;;;;;22.08;13.43;;;;;;;19.06;100.00;100957.25;4784049;30;20044;-67
2022/06/04 03:00:52;;;;;;;23.33;13.77;;;;;;;19.00;100.00;100969.63;4771192;30;20076;-67
2022/06/04 03:03:21;;;;;;;;;;;;;;;18.93;100.00;100967.34;4771239;30;20066;-67
2022/06/04 03:05:56;;;;;;;22.52;14.50;;;;;;;18.90;100.00;100966.06;4769750;30;19937;-67
2022/06/04 03:08:27;;;;;;;22.58;15.15;;;;;;;18.96;100.00;100957.56;4771138;30;20400;-67
2022/06/04 03:10:59;;;;;;;23.73;14.55;;;;;;;18.96;100.00;100961.13;4769361;30;20063;-67
2022/06/04 03:13:26;;;;;;;21.85;14.70;;;;;;;19.01;100.00;100960.97;4756121;30;20040;-67
2022/06/04 03:15:55;;;;;;;24.33;14.82;;;;;;;19.10;100.00;100962.97;4757457;30;20404;-68
2022/06/04 03:18:23;;;;;;;23.00;14.65;;;;;;;19.12;100.00;100969.00;4774684;30;20059;-67
2022/06/04 03:20:51;;;;;;;21.13;13.55;;;;;;;19.14;100.00;100973.06;4768061;30;20051;-67
2022/06/04 03:23:18;;;;;;;21.65;13.70;;;;;;;19.09;100.00;100967.69;4771289;30;20484;-67
2022/06/04 03:25:47;;;;;;;23.95;14.30;;;;;;;19.05;100.00;100970.31;4772799;30;20059;-67
2022/06/04 03:28:15;;;;;;;23.05;14.32;;;;;;;19.21;100.00;100967.00;4770764;30;20052;-67
2022/06/04 03:30:43;;;;;;;23.63;13.60;;;;;;;19.11;100.00;100964.59;4770851;30;20416;-67
2022/06/04 03:33:11;;;;;;;19.83;12.55;;;;;;;19.15;100.00;100971.09;4770495;30;20055;-68
2022/06/04 03:35:39;;;;;;;19.55;12.35;;;;;;;19.32;100.00;100975.81;4771237;29;20082;-67
2022/06/04 03:38:07;;;;;;;19.33;11.80;;;;;;;19.10;100.00;100965.75;4785479;29;20055;-67
2022/06/04 03:40:36;;;;;;;17.17;10.93;;;;;;;18.98;100.00;100967.19;4774106;30;20040;-67
2022/06/04 03:43:04;;;;;;;16.25;11.52;;;;;;;19.04;100.00;100963.13;4770260;30;20556;-67
2022/06/04 03:45:32;;;;;;;14.75;10.10;;;;;;;18.90;100.00;100968.00;4770191;30;20055;-67
2022/06/04 03:48:00;;;;;;;15.00;10.52;;;;;;;18.78;100.00;100963.94;4770538;29;20066;-67
2022/06/04 03:50:29;;;;;;;14.40;9.88;;;;;;;18.98;100.00;100967.19;4770342;30;20072;-67
2022/06/04 03:52:57;;;;;;;12.65;9.05;;;;;;;18.91;100.00;100973.22;4770612;29;20063;-67
2022/06/04 03:55:25;;;;;;;15.40;9.60;;;;;;;18.88;100.00;100973.06;4770428;30;20062;-67
2022/06/04 03:57:54;;;;;;;15.55;9.10;;;;;;;18.92;100.00;100977.63;4769733;30;20055;-67
2022/06/04 04:00:28;;;;;;;12.45;7.65;;;;;;;19.03;100.00;100980.94;4770367;30;20061;-68
2022/06/04 04:02:59;;;;;;;14.38;7.47;;;;;;;18.99;100.00;100959.69;4768460;30;20408;-67
2022/06/04 04:05:34;;;;;;;14.23;8.00;;;;;;;19.01;100.00;100974.84;4769999;30;20063;-67
2022/06/04 04:08:06;;;;;;;12.07;7.07;;;;;;;18.95;100.00;100970.59;4770024;30;20048;-67
2022/06/04 04:10:37;;;;;;;12.23;7.22;;;;;;;19.11;100.00;100978.47;4769552;30;20503;-67
2022/06/04 04:13:06;;;;;;;14.95;7.22;;;;;;;19.43;100.00;100976.25;4769848;30;20055;-67
2022/06/04 04:15:34;;;;;;;12.32;7.72;;;;;;;19.44;100.00;100969.56;4769261;30;20059;-67
2022/06/04 04:18:03;;;;;;;9.18;6.47;;;;;;;19.43;100.00;100966.00;4763400;30;20063;-67
2022/06/04 04:20:33;;;;;;;12.32;7.40;;;;;;;19.28;100.00;100970.09;4765535;30;20052;-67
2022/06/04 04:23:02;;;;;;;10.18;6.93;;;;;;;19.23;100.00;100981.38;4766732;30;20082;-67
2022/06/04 04:25:31;;;;;;;10.57;7.50;;;;;;;19.13;100.00;100973.41;4769615;30;20519;-67
2022/06/04 04:28:00;;;;;;;15.18;8.25;;;;;;;19.18;100.00;100976.00;4768809;30;20071;-67
2022/06/04 04:30:30;;;;;;;12.50;8.68;;;;;;;19.11;100.00;100959.06;4768227;30;20059;-67
2022/06/04 04:32:59;;;;;;;15.90;8.52;;;;;;;19.05;100.00;100945.34;4769766;30;20059;-67
2022/06/04 04:35:30;;;;;;;13.43;8.75;;;;;;;19.00;100.00;100948.25;4769322;30;20055;-67
2022/06/04 04:37:58;;;;;;;13.18;8.65;;;;;;;19.20;100.00;100959.81;4769581;30;20059;-68
2022/06/04 04:40:29;;;;;;;11.80;8.10;;;;;;;19.51;100.00;100949.63;4767901;30;20060;-67
2022/06/04 04:43:00;;;;;;;14.77;8.93;;;;;;;19.58;100.00;100947.16;4769647;30;20059;-67
2022/06/04 04:45:28;;;;;;;13.00;8.20;;;;;;;19.79;100.00;100952.78;4769370;30;20048;-67
2022/06/04 04:47:56;;;;;;;13.85;8.00;;;;;;;19.90;100.00;100960.72;4769463;30;20058;-67
2022/06/04 04:50:37;;;;;;;13.75;7.85;;;;;;;20.06;100.00;100970.16;4769140;30;20071;-67
2022/06/04 04:53:10;;;;;;;12.15;9.32;;;;;;;20.08;100.00;100967.06;4769617;30;20084;-67
2022/06/04 04:55:39;;;;;;;12.05;8.20;;;;;;;20.11;100.00;100972.75;4769331;30;20056;-67
2022/06/04 04:58:07;;;;;;;11.32;8.02;;;;;;;20.07;100.00;100977.34;4769047;30;20051;-68
2022/06/04 05:00:35;;;;;;;10.43;8.60;;;;;;;20.08;100.00;100995.63;4768882;30;20060;-67
2022/06/04 05:03:06;;;;;;;12.57;8.63;;;;;;;20.21;100.00;100984.59;4767920;30;20136;-67
2022/06/04 05:05:34;;;;;;;11.73;7.82;;;;;;;20.21;100.00;100987.38;4768986;30;20052;-67
2022/06/04 05:08:03;;;;;;;13.07;9.10;;;;;;;20.40;99.52;100995.28;4769050;30;20051;-68
2022/06/04 05:10:31;;;;;;;14.68;8.52;;;;;;;20.57;98.17;100999.91;4768691;30;20051;-68
2022/06/04 05:12:59;;;;;;;11.73;8.52;;;;;;;20.81;96.91;100999.22;4768204;29;20047;-67
2022/06/04 05:15:27;;;;;;;12.52;8.82;;;;;;;20.93;97.09;101012.41;4766645;30;20059;-68
2022/06/04 05:17:55;;;;;;;10.18;8.38;;;;;;;21.02;96.32;101014.31;4769377;30;20052;-68
2022/06/04 05:20:23;;;;;;;13.90;9.35;;;;;;;21.15;96.85;101010.41;4768471;30;20048;-67
2022/06/04 05:22:51;;;;;;;11.65;8.48;;;;;;;21.11;96.28;101015.03;4771711;30;20063;-67
2022/06/04 05:25:19;;;;;;;14.57;9.23;;;;;;;21.33;95.96;100999.09;4769156;29;20504;-68
2022/06/04 05:27:47;;;;;;;12.88;9.52;;;;;;;21.41;95.76;101012.09;4768994;30;20044;-67
2022/06/04 05:30:16;;;;;;;13.00;8.50;;;;;;;21.48;95.30;101012.38;4772330;30;20523;-67
2022/06/04 05:32:44;;;;;;;10.48;8.25;;;;;;;21.90;91.84;101024.53;4772242;30;20504;-68
2022/06/04 05:35:12;;;;;;;13.50;9.70;;;;;;;21.88;91.62;101024.06;4772290;30;20066;-67
2022/06/04 05:37:40;;;;;;;15.38;9.45;;;;;;;21.72;93.70;101024.75;4772329;30;20044;-67
2022/06/04 05:40:08;;;;;;;16.63;9.63;;;;;;;21.88;91.16;101033.25;4770187;30;20044;-68
2022/06/04 05:42:38;;;;;;;15.07;9.85;;;;;;;21.83;91.51;101027.06;4771631;30;20407;-67
2022/06/04 05:45:07;;;;;;;12.85;9.13;;;;;;;21.86;90.77;101031.97;4771488;30;20063;-67
2022/06/04 05:47:35;;;;;;;18.00;10.98;;;;;;;22.32;88.47;101028.22;4770707;30;20507;-67
2022/06/04 05:50:04;;;;;;;12.88;9.55;;;;;;;22.61;86.73;101023.56;4771776;30;20052;-73
2022/06/04 05:52:32;;;;;;;12.00;8.30;;;;;;;22.76;84.94;101011.69;4772071;30;20059;-73
2022/06/04 05:55:00;;;;;;;15.80;9.90;;;;;;;22.81;86.27;101022.59;4770472;30;20052;-73
2022/06/04 05:57:29;;;;;;;15.52;8.60;;;;;;;22.89;83.61;101020.00;4772006;30;20064;-73
2022/06/04 05:59:57;;;;;;;16.75;8.88;;;;;;;22.87;84.00;101008.41;4771761;30;20532;-73
2022/06/04 06:02:25;;;;;;;12.98;8.40;;;;;;;22.90;84.58;100999.31;4771261;30;20067;-73
2022/06/04 06:04:55;;;;;;;10.00;7.15;;;;;;;22.93;82.28;101018.94;4771725;30;20060;-73
2022/06/04 06:07:24;;;;;;;9.18;6.05;;;;;;;22.78;80.28;101019.72;4771515;30;20048;-73
2022/06/04 06:09:51;;;;;;;9.57;6.88;;;;;;;22.74;81.66;101011.22;4769431;30;20411;-73
2022/06/04 06:12:19;;;;;;;11.20;6.82;;;;;;;22.75;81.95;101023.19;4767103;30;20051;-72
2022/06/04 06:14:48;;;;;;;10.20;7.05;;;;;;;22.77;83.63;101023.66;4763147;30;20048;-73
2022/06/04 06:17:16;;;;;;;13.93;8.57;;;;;;;22.70;84.79;101041.00;4768810;30;20884;-72
2022/06/04 06:19:44;;;;;;;10.35;7.22;;;;;;;22.85;83.62;101028.28;4760197;30;20056;-73
2022/06/04 06:22:12;;;;;;;9.93;6.57;;;;;;;22.90;81.72;101016.88;4767460;29;20417;-73
2022/06/04 06:24:40;;;;;;;12.35;7.85;;;;;;;22.98;81.34;101025.44;4763538;30;20500;-72
2022/06/04 06:27:10;;;;;;;11.50;8.38;;;;;;;23.15;82.62;101024.31;4778691;29;20070;-73
2022/06/04 06:29:39;;;;;;;11.93;7.20;;;;;;;23.24;80.52;101022.19;4768531;30;20048;-75
2022/06/04 06:32:08;;;;;;;11.52;7.10;;;;;;;23.33;80.86;101028.47;4769502;30;20051;-75
2022/06/04 06:34:36;;;;;;;9.50;7.22;;;;;;;23.41;80.08;101037.03;4769674;30;20522;-74
2022/06/04 06:37:04;;;;;;;10.57;8.05;;;;;;;23.37;80.31;101042.53;4770972;30;20055;-74
2022/06/04 06:39:32;;;;;;;10.30;6.90;;;;;;;23.44;79.68;101041.91;4770686;30;20050;-74
2022/06/04 06:42:01;;;;;;;10.50;7.20;;;;;;;23.47;81.97;101041.97;4770667;30;20059;-74
2022/06/04 06:44:54;;;;;;;10.75;7.90;;;;;;;23.38;80.53;101032.97;4762242;30;20420;-74
2022/06/04 06:47:23;;;;;;;12.48;8.82;;;;;;;23.48;80.36;101037.22;4770891;30;20051;-75
2022/06/04 06:49:51;;;;;;;12.18;8.27;;;;;;;23.48;80.33;101048.41;4770739;30;20055;-73
2022/06/04 06:52:20;;;;;;;12.43;8.60;;;;;;;23.53;79.27;101045.34;4770642;30;20051;-73
2022/06/04 06:54:49;;;;;;;9.82;7.60;;;;;;;23.66;80.00;101056.44;4767302;30;20063;-73
2022/06/04 06:57:18;;;;;;;12.20;8.10;;;;;;;23.62;79.99;101053.56;4765723;30;20508;-73
2022/06/04 06:59:48;;;;;;;10.70;7.70;;;;;;;23.64;80.29;101067.97;4764689;30;20056;-74
2022/06/04 07:02:16;;;;;;;14.57;9.13;;;;;;;23.70;79.73;101060.94;4767375;30;20072;-73
2022/06/04 07:04:44;;;;;;;14.20;9.27;;;;;;;23.75;79.52;101073.81;4767905;29;20493;-73
2022/06/04 07:07:13;;;;;;;12.80;9.02;;;;;;;23.66;79.69;101070.41;4768854;30;20416;-73
2022/06/04 07:09:43;;;;;;;12.82;8.32;;;;;;;23.82;80.21;101071.25;4770926;29;20063;-73
2022/06/04 07:12:13;;;;;;;14.60;8.38;;;;;;;23.96;78.73;101075.56;4770155;30;20059;-73
2022/06/04 07:14:42;;;;;;;14.27;8.85;;;;;;;23.95;79.87;101059.97;4770695;30;20408;-73
2022/06/04 07:17:10;;;;;;;12.95;7.80;;;;;;;24.03;78.29;101062.59;4768065;30;20060;-74
2022/06/04 07:19:38;;;;;;;11.80;8.27;;;;;;;24.14;79.59;101067.66;4770040;30;20052;-73
2022/06/04 07:22:10;;;;;;;13.50;8.32;;;;;;;24.22;79.33;101063.03;4782220;29;20067;-74
2022/06/04 07:24:40;;;;;;;13.10;8.75;;;;;;;24.22;77.14;101065.84;4738459;30;20063;-73
2022/06/04 07:27:09;;;;;;;15.30;9.20;;;;;;;24.20;77.62;101071.00;4764343;30;20051;-73
2022/06/04 07:29:38;;;;;;;12.88;7.85;;;;;;;24.21;78.34;101055.84;4767010;30;20048;-73
2022/06/04 07:32:09;;;;;;;17.38;8.55;;;;;;;24.08;77.77;101058.75;4768587;30;20047;-73
2022/06/04 07:34:40;;;;;;;12.00;8.13;;;;;;;24.19;78.63;101058.19;4768433;30;20059;-74
2022/06/04 07:37:09;;;;;;;10.82;7.97;;;;;;;24.13;79.39;101058.47;4768788;30;20400;-76
2022/06/04 07:39:43;;;;;;;8.38;7.00;;;;;;;24.16;78.39;101060.53;4769653;29;20056;-75
2022/06/04 07:42:19;;;;;;;12.02;8.40;;;;;;;24.21;77.25;101050.25;4740399;30;20069;-76
2022/06/04 07:44:50;;;;;;;10.57;7.13;;;;;;;24.37;77.10;101048.25;4769758;29;20066;-76
2022/06/04 07:47:19;;;;;;;12.63;9.20;;;;;;;24.37;78.91;101056.63;4766520;30;20067;-77
2022/06/04 07:49:54;;;;;;;16.75;10.15;;;;;;;24.35;78.25;101055.38;4767648;30;20066;-76
2022/06/04 07:52:22;;;;;;;15.27;10.07;;;;;;;24.47;77.49;101057.22;4765109;30;20067;-77
2022/06/04 07:54:54;;;;;;;13.43;9.82;;;;;;;24.47;77.80;101052.47;4768963;30;20048;-76
2022/06/04 07:57:22;;;;;;;16.27;10.73;;;;;;;24.49;79.27;101052.09;4768226;30;20606;-74
2022/06/04 07:59:50;;;;;;;14.93;9.30;;;;;;;24.40;76.43;101041.91;4769447;29;20063;-73
2022/06/04 08:02:21;;;;;;;16.65;9.70;;;;;;;24.35;76.11;101038.59;4772572;29;20063;-73
2022/06/04 08:04:51;;;;;;;15.15;10.60;;;;;;;24.45;77.75;101042.81;4767073;30;20060;-73
2022/06/04 08:07:21;;;;;;;16.15;11.05;;;;;;;24.47;77.46;101048.84;4769731;30;20063;-73
2022/06/04 08:09:50;;;;;;;14.85;8.95;;;;;;;24.43;76.54;101051.56;4768586;30;20074;-73
2022/06/04 08:12:21;;;;;;;14.60;9.93;;;;;;;24.49;77.54;101038.13;4769710;30;20536;-74
2022/06/04 08:14:49;;;;;;;12.05;8.40;;;;;;;24.60;75.64;101025.19;4769806;30;20040;-74
2022/06/04 08:17:18;;;;;;;12.95;9.05;;;;;;;24.78;75.82;101045.13;4768874;29;20055;-74
2022/06/04 08:19:45;;;;;;;16.00;9.50;;;;;;;24.86;76.83;101032.13;4769384;30;20059;-74
2022/06/04 08:22:23;;;;;;;13.00;9.15;;;;;;;25.14;76.33;101039.50;4769086;30;20048;-74
2022/06/04 08:24:51;;;;;;;14.82;10.40;;;;;;;25.23;74.91;101048.47;4769565;30;20048;-74
2022/06/04 08:27:19;;;;;;;12.80;8.68;;;;;;;25.34;74.00;101042.28;4769504;30;20051;-74
2022/06/04 08:29:47;;;;;;;14.32;9.40;;;;;;;25.47;73.18;101052.13;4769653;30;20062;-74
2022/06/04 08:32:25;;;;;;;13.82;9.43;;;;;;;25.75;71.83;101037.06;4769559;30;20052;-74
2022/06/04 08:34:54;;;;;;;19.10;9.98;;;;;;;25.80;71.74;101032.31;4768977;30;20048;-74
2022/06/04 08:37:22;;;;;;;14.48;9.35;;;;;;;25.81;70.71;101037.53;4768895;30;20508;-74
2022/06/04 08:39:50;;;;;;;14.55;8.45;;;;;;;25.70;69.49;101047.78;4769278;30;20047;-74
2022/06/04 08:42:35;;;;;;;14.82;8.35;;;;;;;25.64;69.40;101050.06;4768846;30;20508;-74
2022/06/04 08:45:03;;;;;;;10.60;7.78;;;;;;;25.71;69.38;101044.56;4769098;30;20515;-74
2022/06/04 08:47:45;;;;;;;14.07;9.00;;;;;;;25.93;70.56;101053.38;4767547;30;20062;-74
2022/06/04 08:50:26;;;;;;;13.80;8.05;;;;;;;26.13;69.48;101042.06;4767983;30;20062;-75
2022/06/04 08:52:59;;;;;;;12.07;8.07;;;;;;;26.13;67.35;101042.06;4768853;30;20074;-74
2022/06/04 08:58:43;;;;;;;8.55;6.25;;;;;;;26.65;64.91;101050.06;4769184;30;20089;-74
2022/06/04 09:01:18;;;;;;;10.10;5.72;;;;;;;26.70;64.01;101058.94;4768970;30;20060;-74
2022/06/04 09:04:15;;;;;;;7.57;5.63;;;;;;;26.92;63.31;101061.25;4768096;30;20052;-74
2022/06/04 09:06:49;;;;;;;5.57;4.97;;;;;;;26.99;62.08;101058.56;4766471;30;20063;-75
2022/06/04 09:09:55;;;;;;;4.95;4.20;;;;;;;27.09;61.17;101052.25;4769193;30;20214;-74
2022/06/04 09:12:42;;;;;;;6.65;4.68;;;;;;;27.19;60.69;101056.41;4768504;30;20063;-74
2022/06/04 09:15:42;;;;;;;4.93;4.38;;;;;;;27.27;59.87;101051.63;4769125;30;21037;-74
2022/06/04 09:18:16;;;;;;;2.90;2.63;;;;;;;27.25;56.17;101042.81;4768404;30;20065;-73
2022/06/04 09:20:55;;;;;;;2.92;2.70;;;;;;;27.34;55.04;101051.75;4767791;30;20058;-74
2022/06/04 09:23:35;;;;;;;4.03;2.85;;;;;;;27.33;55.25;101058.53;4768653;30;20056;-74
2022/06/04 09:26:15;;;;;;;2.63;2.33;;;;;;;27.43;53.53;101059.03;4768347;30;20392;-73
2022/06/04 09:29:10;;;;;;;3.03;2.55;;;;;;;27.57;54.02;101062.00;4769062;30;20063;-73
2022/06/04 09:32:00;;;;;;;2.80;2.47;;;;;;;27.59;52.79;101062.47;4761557;30;20086;-73
2022/06/04 09:34:42;;;;;;;4.50;3.05;;;;;;;27.75;53.95;101047.31;4767384;30;20050;-73
2022/06/04 09:37:11;;;;;;;3.95;2.75;;;;;;;27.77;53.82;101039.34;4767519;30;20070;-73
2022/06/04 09:39:42;;;;;;;4.03;3.15;;;;;;;27.70;53.68;101045.69;4772942;29;20063;-74
2022/06/04 09:42:15;;;;;;;3.58;2.67;;;;;;;27.80;53.91;101049.78;4762375;30;20537;-74
2022/06/04 09:44:58;;;;;;;3.03;2.80;;;;;;;27.86;53.28;101039.78;4765970;30;20074;-73
2022/06/04 09:47:53;;;;;;;3.92;2.75;;;;;;;27.96;52.08;101041.06;4767715;30;20396;-73
2022/06/04 09:50:21;;;;;;;3.88;2.90;;;;;;;28.19;52.31;101036.44;4765112;30;20484;-73
2022/06/04 09:53:20;;;;;;;3.55;2.75;;;;;;;28.21;51.30;101039.66;4766420;30;20052;-73
2022/06/04 09:55:54;;;;;;;2.58;2.38;;;;;;;28.37;50.87;101037.38;4766661;30;20062;-73
2022/06/04 09:58:34;;;;;;;2.47;2.22;;;;;;;28.38;48.27;101032.56;4765209;30;20052;-73
2022/06/04 10:01:14;;;;;;;4.45;2.47;;;;;;;28.45;49.81;101027.00;4767302;30;20052;-74
2022/06/04 10:03:43;;;;;;;4.53;2.65;;;;;;;28.42;50.05;101031.41;4767354;30;20043;-74
2022/06/04 10:06:16;;;;;;;2.75;2.13;;;;;;;28.54;48.55;101032.25;4767038;29;20092;-73
2022/06/04 10:11:56;;;;;;;3.80;2.70;;;;;;;28.76;47.27;101023.91;4765639;30;20066;-73
2022/06/04 10:14:31;;;;;;;4.32;2.15;;;;;;;29.02;46.78;101030.50;4768053;30;20523;-73
2022/06/04 10:17:00;;;;;;;5.85;2.20;;;;;;;28.93;47.70;101022.41;4770262;30;20717;-74
2022/06/04 10:19:33;;;;;;;3.10;2.25;;;;;;;29.07;46.59;101024.44;4770181;30;20503;-73
2022/06/04 10:22:11;;;;;;;3.10;2.28;;;;;;;29.01;46.04;101017.59;4770049;30;20385;-72
2022/06/04 10:24:57;;;;;;;4.30;2.00;;;;;;;29.08;43.90;101012.78;4769376;30;20063;-73
2022/06/04 10:27:33;;;;;;;6.15;1.80;;;;;;;29.19;42.95;101012.81;4770096;30;20060;-73
2022/06/04 10:30:50;;;;;;;2.65;1.23;;;;;;;29.23;42.16;101010.81;4770328;30;20397;-74
2022/06/04 10:33:47;;;;;;;7.85;1.75;;;;;;;29.18;44.44;101005.56;4770356;30;20062;-74
2022/06/04 10:36:46;;;;;;;4.70;1.70;;;;;;;29.22;44.27;101000.75;4771466;30;20081;-74
2022/06/04 10:39:29;;;;;;;2.28;1.55;;;;;;;29.48;42.94;101003.63;4768097;30;20056;-74
2022/06/04 10:42:19;;;;;;;2.73;1.23;;;;;;;29.47;43.00;101016.88;4771404;30;20508;-75
2022/06/04 10:44:58;;;;;;;2.95;1.75;;;;;;;29.59;43.54;101014.91;4771128;30;20059;-74
2022/06/04 10:47:34;;;;;;;2.90;1.48;;;;;;;29.54;41.97;101007.66;4771176;30;20786;-74
2022/06/04 10:50:17;;;;;;;2.30;1.35;;;;;;;29.60;42.99;101010.88;4770807;30;20047;-74
2022/06/04 10:53:25;;;;;;;2.72;1.48;;;;;;;29.75;40.89;101008.88;4771249;30;20052;-74
2022/06/04 10:56:04;;;;;;;1.50;1.40;;;;;;;29.69;42.28;100994.38;4761129;30;20058;-74
2022/06/04 10:58:39;;;;;;;3.65;1.65;;;;;;;29.66;42.36;101000.81;4769896;30;20051;-74
2022/06/04 11:01:26;;;;;;;4.45;1.60;;;;;;;29.81;40.53;100998.00;4771156;30;20459;-74
2022/06/04 11:04:36;;;;;;;5.22;1.73;;;;;;;30.87;40.05;101001.41;4757188;30;20123;-67
2022/06/04 11:07:07;;;;;;;3.38;1.80;;;;;;;31.48;36.83;100995.38;4760058;30;20404;-67
2022/06/04 11:09:38;;;;;;;3.50;2.00;;;;;;;32.04;35.86;100991.69;4770489;30;20063;-67
2022/06/04 11:12:26;;;;;;;1.98;1.50;;;;;;;32.44;33.71;100985.59;4769723;30;20056;-67
2022/06/04 11:18:28;;;;;;;2.13;1.67;;;;;;;33.30;34.88;100967.03;4888122;24;20063;-67
2022/06/04 11:21:13;;;;;;;3.17;1.70;;;;;;;33.14;34.96;100962.84;4763528;29;20093;-67
2022/06/04 11:23:55;;;;;;;4.10;2.53;;;;;;;33.21;33.98;100967.59;4787384;29;20067;-67
2022/06/04 11:26:43;;;;;;;3.85;1.90;;;;;;;33.11;33.92;100961.66;4780181;29;20054;-67
2022/06/04 11:29:12;;;;;;;2.70;2.17;;;;;;;33.72;33.72;100966.78;4776664;29;20066;-68
2022/06/04 11:31:48;;;;;;;3.20;1.73;;;;;;;34.07;31.57;100969.41;4784382;29;20514;-67
2022/06/04 11:34:27;;;;;;;4.80;1.73;;;;;;;34.04;29.90;100965.41;4778017;29;20068;-67
2022/06/04 11:37:00;;;;;;;5.55;2.08;;;;;;;34.20;32.39;100953.31;4770116;29;20514;-67
2022/06/04 11:39:52;;;;;;;4.25;1.58;;;;;;;34.15;32.59;100951.00;4769529;30;20099;-67
2022/06/04 11:42:51;;;;;;;2.30;1.75;;;;;;;34.24;31.25;100950.41;4782321;29;20047;-67
2022/06/04 11:45:34;;;;;;;2.22;1.55;;;;;;;34.33;31.16;100947.00;4783578;29;20047;-67
2022/06/04 11:48:27;;;;;;;3.45;1.63;;;;;;;34.72;29.17;100948.22;4777692;29;20048;-67
2022/06/04 11:51:04;;;;;;;2.92;1.58;;;;;;;34.41;31.58;100951.28;4757499;30;20411;-67
2022/06/04 11:53:34;;;;;;;5.38;1.90;;;;;;;34.55;31.62;100941.69;4769437;30;20055;-67
2022/06/04 11:56:15;;;;;;;3.27;2.07;;;;;;;34.40;30.78;100944.03;4756936;30;20515;-68
2022/06/04 11:59:03;;;;;;;2.78;1.50;;;;;;;34.21;30.66;100935.06;4781494;29;20138;-78
2022/06/04 12:01:34;;;;;;;2.22;1.73;;;;;;;33.57;33.74;100937.88;4759825;30;20051;-76
2022/06/04 12:04:32;;;;;;;3.42;1.80;;;;;;;33.18;34.52;100931.59;4770760;29;20047;-76